sensor_id;sensor_type;location;lat;lon;timestamp;temperature;humidity
21387;DHT22;10854;45.922;6.716;2022-08-07T00:00:10;18.10;99.90
21387;DHT22;10854;45.922;6.716;2022-08-07T00:02:39;18.00;99.90
21387;DHT22;10854;45.922;6.716;2022-08-07T00:05:08;18.00;99.90
21387;DHT22;10854;45.922;6.716;2022-08-07T00:07:36;17.90;99.90
21387;DHT22;10854;45.922;6.716;2022-08-07T00:10:05;17.80;99.90
21387;DHT22;10854;45.922;6.716;2022-08-07T00:12:49;17.80;99.90
21387;DHT22;10854;45.922;6.716;2022-08-07T00:15:18;17.80;99.90
21387;DHT22;10854;45.922;6.716;2022-08-07T00:17:46;17.80;99.90
21387;DHT22;10854;45.922;6.716;2022-08-07T00:20:15;17.70;99.90
21387;DHT22;10854;45.922;6.716;2022-08-07T00:22:44;17.70;99.90
21387;DHT22;10854;45.922;6.716;2022-08-07T00:25:13;17.70;99.90
21387;DHT22;10854;45.922;6.716;2022-08-07T00:27:42;17.70;99.90
21387;DHT22;10854;45.922;6.716;2022-08-07T00:30:11;17.80;99.90
21387;DHT22;10854;45.922;6.716;2022-08-07T00:32:39;17.80;99.90
21387;DHT22;10854;45.922;6.716;2022-08-07T00:35:08;17.90;99.90
21387;DHT22;10854;45.922;6.716;2022-08-07T00:37:37;17.90;99.90
21387;DHT22;10854;45.922;6.716;2022-08-07T00:40:06;18.00;99.90
21387;DHT22;10854;45.922;6.716;2022-08-07T00:42:34;18.10;99.90
21387;DHT22;10854;45.922;6.716;2022-08-07T00:45:04;18.10;99.90
21387;DHT22;10854;45.922;6.716;2022-08-07T00:47:33;18.20;99.90
21387;DHT22;10854;45.922;6.716;2022-08-07T00:50:02;18.20;99.90
21387;DHT22;10854;45.922;6.716;2022-08-07T00:52:31;18.20;99.90
21387;DHT22;10854;45.922;6.716;2022-08-07T00:54:59;18.20;99.90
21387;DHT22;10854;45.922;6.716;2022-08-07T00:57:28;18.20;99.90
21387;DHT22;10854;45.922;6.716;2022-08-07T00:59:56;18.30;99.90
21387;DHT22;10854;45.922;6.716;2022-08-07T01:02:25;18.30;99.90
21387;DHT22;10854;45.922;6.716;2022-08-07T01:04:53;18.40;99.90
21387;DHT22;10854;45.922;6.716;2022-08-07T01:07:22;18.40;99.90
21387;DHT22;10854;45.922;6.716;2022-08-07T01:09:51;18.40;99.90
21387;DHT22;10854;45.922;6.716;2022-08-07T01:12:19;18.50;99.90
21387;DHT22;10854;45.922;6.716;2022-08-07T01:14:48;18.50;99.90
21387;DHT22;10854;45.922;6.716;2022-08-07T01:17:17;18.50;99.90
21387;DHT22;10854;45.922;6.716;2022-08-07T01:19:46;18.60;99.90
21387;DHT22;10854;45.922;6.716;2022-08-07T01:22:15;18.60;99.90
21387;DHT22;10854;45.922;6.716;2022-08-07T01:24:44;18.70;99.90
21387;DHT22;10854;45.922;6.716;2022-08-07T01:27:13;18.70;99.90
21387;DHT22;10854;45.922;6.716;2022-08-07T01:29:42;18.70;99.90
21387;DHT22;10854;45.922;6.716;2022-08-07T01:32:11;18.70;99.90
21387;DHT22;10854;45.922;6.716;2022-08-07T01:34:39;18.80;99.90
21387;DHT22;10854;45.922;6.716;2022-08-07T01:37:11;18.80;99.90
21387;DHT22;10854;45.922;6.716;2022-08-07T01:39:45;18.80;99.90
21387;DHT22;10854;45.922;6.716;2022-08-07T01:42:14;18.80;99.90
21387;DHT22;10854;45.922;6.716;2022-08-07T01:44:43;18.90;99.90
21387;DHT22;10854;45.922;6.716;2022-08-07T01:47:12;18.90;99.90
21387;DHT22;10854;45.922;6.716;2022-08-07T01:49:41;18.90;99.90
21387;DHT22;10854;45.922;6.716;2022-08-07T01:52:10;18.90;99.90
21387;DHT22;10854;45.922;6.716;2022-08-07T01:54:40;18.90;99.90
21387;DHT22;10854;45.922;6.716;2022-08-07T01:57:16;18.90;99.90
21387;DHT22;10854;45.922;6.716;2022-08-07T01:59:53;18.90;99.90
21387;DHT22;10854;45.922;6.716;2022-08-07T02:02:28;19.00;99.90
21387;DHT22;10854;45.922;6.716;2022-08-07T02:05:06;18.90;99.90
21387;DHT22;10854;45.922;6.716;2022-08-07T02:07:40;19.00;99.90
21387;DHT22;10854;45.922;6.716;2022-08-07T02:10:10;19.00;99.90
21387;DHT22;10854;45.922;6.716;2022-08-07T02:12:42;19.00;99.90
21387;DHT22;10854;45.922;6.716;2022-08-07T02:15:11;19.00;99.90
21387;DHT22;10854;45.922;6.716;2022-08-07T02:17:42;19.00;99.90
21387;DHT22;10854;45.922;6.716;2022-08-07T02:20:12;19.00;99.90
21387;DHT22;10854;45.922;6.716;2022-08-07T02:22:41;19.00;99.90
21387;DHT22;10854;45.922;6.716;2022-08-07T02:25:12;19.00;99.90
21387;DHT22;10854;45.922;6.716;2022-08-07T02:27:43;19.00;99.90
21387;DHT22;10854;45.922;6.716;2022-08-07T02:30:13;19.00;99.90
21387;DHT22;10854;45.922;6.716;2022-08-07T02:32:42;19.00;99.90
21387;DHT22;10854;45.922;6.716;2022-08-07T02:35:12;19.10;99.90
21387;DHT22;10854;45.922;6.716;2022-08-07T02:37:46;19.10;99.90
21387;DHT22;10854;45.922;6.716;2022-08-07T02:40:15;19.10;99.90
21387;DHT22;10854;45.922;6.716;2022-08-07T02:42:45;19.10;99.90
21387;DHT22;10854;45.922;6.716;2022-08-07T02:45:16;19.10;99.90
21387;DHT22;10854;45.922;6.716;2022-08-07T02:47:47;19.10;99.90
21387;DHT22;10854;45.922;6.716;2022-08-07T02:50:15;19.10;99.90
21387;DHT22;10854;45.922;6.716;2022-08-07T02:55:26;19.10;99.90
21387;DHT22;10854;45.922;6.716;2022-08-07T02:58:11;19.10;99.90
21387;DHT22;10854;45.922;6.716;2022-08-07T03:00:41;19.10;99.90
21387;DHT22;10854;45.922;6.716;2022-08-07T03:03:11;19.10;99.90
21387;DHT22;10854;45.922;6.716;2022-08-07T03:05:40;19.10;99.90
21387;DHT22;10854;45.922;6.716;2022-08-07T03:08:09;19.10;99.90
21387;DHT22;10854;45.922;6.716;2022-08-07T03:10:39;19.10;99.90
21387;DHT22;10854;45.922;6.716;2022-08-07T03:13:08;19.10;99.90
21387;DHT22;10854;45.922;6.716;2022-08-07T03:15:37;19.20;99.90
21387;DHT22;10854;45.922;6.716;2022-08-07T03:18:06;19.10;99.90
21387;DHT22;10854;45.922;6.716;2022-08-07T03:20:35;19.10;99.90
21387;DHT22;10854;45.922;6.716;2022-08-07T03:23:04;19.10;99.90
21387;DHT22;10854;45.922;6.716;2022-08-07T03:25:38;19.10;99.90
21387;DHT22;10854;45.922;6.716;2022-08-07T03:28:10;19.10;99.90
21387;DHT22;10854;45.922;6.716;2022-08-07T03:30:41;19.10;99.90
21387;DHT22;10854;45.922;6.716;2022-08-07T03:33:10;19.10;99.90
21387;DHT22;10854;45.922;6.716;2022-08-07T03:35:41;19.10;99.90
21387;DHT22;10854;45.922;6.716;2022-08-07T03:38:11;19.10;99.90
21387;DHT22;10854;45.922;6.716;2022-08-07T03:40:41;19.10;99.90
21387;DHT22;10854;45.922;6.716;2022-08-07T03:43:10;19.10;99.90
21387;DHT22;10854;45.922;6.716;2022-08-07T03:45:39;19.10;99.90
21387;DHT22;10854;45.922;6.716;2022-08-07T03:48:08;19.10;99.90
21387;DHT22;10854;45.922;6.716;2022-08-07T03:50:37;19.10;99.90
21387;DHT22;10854;45.922;6.716;2022-08-07T03:53:06;19.10;99.90
21387;DHT22;10854;45.922;6.716;2022-08-07T03:55:36;19.10;99.90
21387;DHT22;10854;45.922;6.716;2022-08-07T03:58:05;19.10;99.90
21387;DHT22;10854;45.922;6.716;2022-08-07T04:00:35;19.10;99.90
21387;DHT22;10854;45.922;6.716;2022-08-07T04:03:04;19.10;99.90
21387;DHT22;10854;45.922;6.716;2022-08-07T04:05:36;19.10;99.90
21387;DHT22;10854;45.922;6.716;2022-08-07T04:08:04;19.10;99.90
21387;DHT22;10854;45.922;6.716;2022-08-07T04:10:33;19.10;99.90
21387;DHT22;10854;45.922;6.716;2022-08-07T04:13:02;19.10;99.90
21387;DHT22;10854;45.922;6.716;2022-08-07T04:15:31;19.10;99.90
21387;DHT22;10854;45.922;6.716;2022-08-07T04:18:01;19.00;99.90
21387;DHT22;10854;45.922;6.716;2022-08-07T04:20:30;19.00;99.90
21387;DHT22;10854;45.922;6.716;2022-08-07T04:22:59;19.00;99.90
21387;DHT22;10854;45.922;6.716;2022-08-07T04:25:29;19.00;99.90
21387;DHT22;10854;45.922;6.716;2022-08-07T04:27:59;19.00;99.90
21387;DHT22;10854;45.922;6.716;2022-08-07T04:30:27;19.00;99.90
21387;DHT22;10854;45.922;6.716;2022-08-07T04:32:56;19.00;99.90
21387;DHT22;10854;45.922;6.716;2022-08-07T04:35:25;19.00;99.90
21387;DHT22;10854;45.922;6.716;2022-08-07T04:37:55;19.00;99.90
21387;DHT22;10854;45.922;6.716;2022-08-07T04:40:24;19.00;99.90
21387;DHT22;10854;45.922;6.716;2022-08-07T04:42:52;19.00;99.90
21387;DHT22;10854;45.922;6.716;2022-08-07T04:45:23;19.00;99.90
21387;DHT22;10854;45.922;6.716;2022-08-07T04:48:03;19.10;99.90
21387;DHT22;10854;45.922;6.716;2022-08-07T04:50:57;19.10;99.90
21387;DHT22;10854;45.922;6.716;2022-08-07T04:53:52;19.10;99.90
21387;DHT22;10854;45.922;6.716;2022-08-07T04:56:29;19.10;99.90
21387;DHT22;10854;45.922;6.716;2022-08-07T04:59:50;19.00;99.90
21387;DHT22;10854;45.922;6.716;2022-08-07T05:02:06;19.00;99.90
21387;DHT22;10854;45.922;6.716;2022-08-07T05:05:39;19.00;99.90
21387;DHT22;10854;45.922;6.716;2022-08-07T05:08:05;19.00;99.90
21387;DHT22;10854;45.922;6.716;2022-08-07T05:10:39;19.00;99.90
21387;DHT22;10854;45.922;6.716;2022-08-07T05:13:17;19.10;99.90
21387;DHT22;10854;45.922;6.716;2022-08-07T05:15:50;19.10;99.90
21387;DHT22;10854;45.922;6.716;2022-08-07T05:18:27;19.10;99.90
21387;DHT22;10854;45.922;6.716;2022-08-07T05:20:59;19.10;99.90
21387;DHT22;10854;45.922;6.716;2022-08-07T05:23:40;19.20;99.90
21387;DHT22;10854;45.922;6.716;2022-08-07T05:26:16;19.20;99.90
21387;DHT22;10854;45.922;6.716;2022-08-07T05:28:48;19.20;99.90
21387;DHT22;10854;45.922;6.716;2022-08-07T05:31:20;19.30;99.90
21387;DHT22;10854;45.922;6.716;2022-08-07T05:33:51;19.30;99.90
21387;DHT22;10854;45.922;6.716;2022-08-07T05:36:22;19.30;99.90
21387;DHT22;10854;45.922;6.716;2022-08-07T05:38:52;19.40;99.90
21387;DHT22;10854;45.922;6.716;2022-08-07T05:41:22;19.40;99.90
21387;DHT22;10854;45.922;6.716;2022-08-07T05:43:53;19.50;99.90
21387;DHT22;10854;45.922;6.716;2022-08-07T05:46:22;19.50;99.90
21387;DHT22;10854;45.922;6.716;2022-08-07T05:48:52;19.50;99.90
21387;DHT22;10854;45.922;6.716;2022-08-07T05:51:21;19.60;99.90
21387;DHT22;10854;45.922;6.716;2022-08-07T05:53:51;19.70;99.90
21387;DHT22;10854;45.922;6.716;2022-08-07T05:56:20;19.70;99.90
21387;DHT22;10854;45.922;6.716;2022-08-07T05:58:49;19.80;99.90
21387;DHT22;10854;45.922;6.716;2022-08-07T06:01:19;19.80;99.90
21387;DHT22;10854;45.922;6.716;2022-08-07T06:03:53;19.90;99.90
21387;DHT22;10854;45.922;6.716;2022-08-07T06:06:23;19.90;99.90
21387;DHT22;10854;45.922;6.716;2022-08-07T06:08:52;20.00;99.90
21387;DHT22;10854;45.922;6.716;2022-08-07T06:11:22;20.00;99.90
21387;DHT22;10854;45.922;6.716;2022-08-07T06:13:50;20.10;99.90
21387;DHT22;10854;45.922;6.716;2022-08-07T06:16:22;20.10;99.90
21387;DHT22;10854;45.922;6.716;2022-08-07T06:18:52;20.10;99.90
21387;DHT22;10854;45.922;6.716;2022-08-07T06:21:22;20.20;99.90
21387;DHT22;10854;45.922;6.716;2022-08-07T06:23:50;20.20;99.90
21387;DHT22;10854;45.922;6.716;2022-08-07T06:26:19;20.20;99.90
21387;DHT22;10854;45.922;6.716;2022-08-07T06:28:56;20.30;99.90
21387;DHT22;10854;45.922;6.716;2022-08-07T06:31:26;20.30;99.90
21387;DHT22;10854;45.922;6.716;2022-08-07T06:33:55;20.40;99.90
21387;DHT22;10854;45.922;6.716;2022-08-07T06:36:24;20.40;99.90
21387;DHT22;10854;45.922;6.716;2022-08-07T06:38:55;20.40;99.90
21387;DHT22;10854;45.922;6.716;2022-08-07T06:41:42;20.50;99.90
21387;DHT22;10854;45.922;6.716;2022-08-07T06:44:12;20.50;99.90
21387;DHT22;10854;45.922;6.716;2022-08-07T06:46:41;20.60;99.90
21387;DHT22;10854;45.922;6.716;2022-08-07T06:49:10;20.60;99.90
21387;DHT22;10854;45.922;6.716;2022-08-07T06:51:44;20.70;99.90
21387;DHT22;10854;45.922;6.716;2022-08-07T06:54:16;20.80;99.90
21387;DHT22;10854;45.922;6.716;2022-08-07T06:56:46;20.90;99.60
21387;DHT22;10854;45.922;6.716;2022-08-07T06:59:21;21.00;99.10
21387;DHT22;10854;45.922;6.716;2022-08-07T07:01:51;21.00;98.80
21387;DHT22;10854;45.922;6.716;2022-08-07T07:04:20;21.10;98.70
21387;DHT22;10854;45.922;6.716;2022-08-07T07:06:49;21.20;98.50
21387;DHT22;10854;45.922;6.716;2022-08-07T07:09:29;21.20;98.20
21387;DHT22;10854;45.922;6.716;2022-08-07T07:15:12;21.40;97.90
21387;DHT22;10854;45.922;6.716;2022-08-07T07:17:55;21.60;97.30
21387;DHT22;10854;45.922;6.716;2022-08-07T07:20:33;21.60;97.00
21387;DHT22;10854;45.922;6.716;2022-08-07T07:23:04;21.70;96.80
21387;DHT22;10854;45.922;6.716;2022-08-07T07:25:34;21.70;96.70
21387;DHT22;10854;45.922;6.716;2022-08-07T07:30:56;21.70;95.80
21387;DHT22;10854;45.922;6.716;2022-08-07T07:33:27;21.70;95.80
21387;DHT22;10854;45.922;6.716;2022-08-07T07:35:58;21.70;95.60
21387;DHT22;10854;45.922;6.716;2022-08-07T07:38:27;21.70;95.50
21387;DHT22;10854;45.922;6.716;2022-08-07T07:41:02;21.70;95.00
21387;DHT22;10854;45.922;6.716;2022-08-07T07:43:31;21.80;94.60
21387;DHT22;10854;45.922;6.716;2022-08-07T07:46:01;21.80;94.20
21387;DHT22;10854;45.922;6.716;2022-08-07T07:48:32;21.90;93.90
21387;DHT22;10854;45.922;6.716;2022-08-07T07:51:03;22.00;93.50
21387;DHT22;10854;45.922;6.716;2022-08-07T07:53:36;22.00;93.30
21387;DHT22;10854;45.922;6.716;2022-08-07T07:56:08;22.10;93.00
21387;DHT22;10854;45.922;6.716;2022-08-07T07:58:38;22.30;92.60
21387;DHT22;10854;45.922;6.716;2022-08-07T08:01:09;22.40;91.80
21387;DHT22;10854;45.922;6.716;2022-08-07T08:03:40;22.50;91.30
21387;DHT22;10854;45.922;6.716;2022-08-07T08:06:11;22.50;90.80
21387;DHT22;10854;45.922;6.716;2022-08-07T08:08:42;22.50;90.50
21387;DHT22;10854;45.922;6.716;2022-08-07T08:11:11;22.60;90.10
21387;DHT22;10854;45.922;6.716;2022-08-07T08:13:43;22.60;89.20
21387;DHT22;10854;45.922;6.716;2022-08-07T08:16:14;22.60;88.90
21387;DHT22;10854;45.922;6.716;2022-08-07T08:18:45;22.60;88.50
21387;DHT22;10854;45.922;6.716;2022-08-07T08:21:15;22.60;88.60
21387;DHT22;10854;45.922;6.716;2022-08-07T08:24:04;22.60;88.40
21387;DHT22;10854;45.922;6.716;2022-08-07T08:26:52;22.70;87.70
21387;DHT22;10854;45.922;6.716;2022-08-07T08:30:04;22.60;87.20
21387;DHT22;10854;45.922;6.716;2022-08-07T08:32:53;22.60;87.40
21387;DHT22;10854;45.922;6.716;2022-08-07T08:35:25;22.70;87.30
21387;DHT22;10854;45.922;6.716;2022-08-07T08:38:00;22.60;86.80
21387;DHT22;10854;45.922;6.716;2022-08-07T08:40:35;22.60;87.50
21387;DHT22;10854;45.922;6.716;2022-08-07T08:43:13;22.50;87.70
21387;DHT22;10854;45.922;6.716;2022-08-07T08:45:52;22.50;88.00
21387;DHT22;10854;45.922;6.716;2022-08-07T08:51:01;22.60;88.10
21387;DHT22;10854;45.922;6.716;2022-08-07T08:53:41;22.70;87.90
21387;DHT22;10854;45.922;6.716;2022-08-07T08:56:14;22.80;87.90
21387;DHT22;10854;45.922;6.716;2022-08-07T08:59:03;22.90;87.70
21387;DHT22;10854;45.922;6.716;2022-08-07T09:01:41;23.10;87.00
21387;DHT22;10854;45.922;6.716;2022-08-07T09:07:13;23.30;86.10
21387;DHT22;10854;45.922;6.716;2022-08-07T09:10:06;23.40;85.60
21387;DHT22;10854;45.922;6.716;2022-08-07T09:12:55;23.40;85.00
21387;DHT22;10854;45.922;6.716;2022-08-07T09:24:23;23.60;84.50
21387;DHT22;10854;45.922;6.716;2022-08-07T09:30:08;23.70;83.30
21387;DHT22;10854;45.922;6.716;2022-08-07T09:32:59;23.70;83.10
21387;DHT22;10854;45.922;6.716;2022-08-07T09:36:00;23.70;82.80
21387;DHT22;10854;45.922;6.716;2022-08-07T09:38:44;23.70;82.50
21387;DHT22;10854;45.922;6.716;2022-08-07T09:41:46;23.90;82.40
21387;DHT22;10854;45.922;6.716;2022-08-07T09:50:10;24.40;78.70
21387;DHT22;10854;45.922;6.716;2022-08-07T09:53:01;24.40;78.90
21387;DHT22;10854;45.922;6.716;2022-08-07T09:55:51;24.60;78.60
21387;DHT22;10854;45.922;6.716;2022-08-07T10:16:37;26.40;71.90
21387;DHT22;10854;45.922;6.716;2022-08-07T10:25:11;26.90;68.90
21387;DHT22;10854;45.922;6.716;2022-08-07T10:28:54;26.80;68.60
21387;DHT22;10854;45.922;6.716;2022-08-07T10:36:47;27.30;67.90
21387;DHT22;10854;45.922;6.716;2022-08-07T10:42:45;28.20;65.80
21387;DHT22;10854;45.922;6.716;2022-08-07T10:45:34;29.60;63.60
21387;DHT22;10854;45.922;6.716;2022-08-07T10:48:48;30.00;59.80
21387;DHT22;10854;45.922;6.716;2022-08-07T10:54:31;29.50;59.80
21387;DHT22;10854;45.922;6.716;2022-08-07T11:00:12;28.90;60.60
21387;DHT22;10854;45.922;6.716;2022-08-07T11:03:04;29.30;61.10
21387;DHT22;10854;45.922;6.716;2022-08-07T11:05:51;29.90;59.00
21387;DHT22;10854;45.922;6.716;2022-08-07T11:16:57;30.40;57.00
21387;DHT22;10854;45.922;6.716;2022-08-07T11:22:29;30.10;56.80
21387;DHT22;10854;45.922;6.716;2022-08-07T11:25:26;30.10;57.10
21387;DHT22;10854;45.922;6.716;2022-08-07T11:28:09;30.00;56.50
21387;DHT22;10854;45.922;6.716;2022-08-07T11:31:06;29.80;57.20
21387;DHT22;10854;45.922;6.716;2022-08-07T11:37:07;29.30;58.50
21387;DHT22;10854;45.922;6.716;2022-08-07T11:42:29;30.30;57.40
21387;DHT22;10854;45.922;6.716;2022-08-07T11:51:37;31.30;55.10
21387;DHT22;10854;45.922;6.716;2022-08-07T11:57:36;31.60;54.60
21387;DHT22;10854;45.922;6.716;2022-08-07T12:00:14;31.90;54.30
21387;DHT22;10854;45.922;6.716;2022-08-07T12:07:59;33.30;52.10
21387;DHT22;10854;45.922;6.716;2022-08-07T12:10:41;33.40;51.30
21387;DHT22;10854;45.922;6.716;2022-08-07T12:13:36;33.00;50.60
21387;DHT22;10854;45.922;6.716;2022-08-07T12:16:17;32.50;51.50
21387;DHT22;10854;45.922;6.716;2022-08-07T12:24:16;32.30;51.70
21387;DHT22;10854;45.922;6.716;2022-08-07T12:26:52;32.30;51.70
21387;DHT22;10854;45.922;6.716;2022-08-07T12:29:37;32.20;51.80
21387;DHT22;10854;45.922;6.716;2022-08-07T12:32:16;32.30;51.70
21387;DHT22;10854;45.922;6.716;2022-08-07T12:34:49;32.10;51.40
21387;DHT22;10854;45.922;6.716;2022-08-07T12:37:18;31.80;52.50
21387;DHT22;10854;45.922;6.716;2022-08-07T12:39:49;32.10;52.30
21387;DHT22;10854;45.922;6.716;2022-08-07T12:42:25;32.00;51.50
21387;DHT22;10854;45.922;6.716;2022-08-07T12:45:02;31.80;52.10
21387;DHT22;10854;45.922;6.716;2022-08-07T12:50:40;31.60;52.40
21387;DHT22;10854;45.922;6.716;2022-08-07T12:53:36;31.80;52.30
21387;DHT22;10854;45.922;6.716;2022-08-07T12:56:09;31.80;52.10
21387;DHT22;10854;45.922;6.716;2022-08-07T12:58:45;32.10;52.10
21387;DHT22;10854;45.922;6.716;2022-08-07T13:09:51;32.40;51.00
21387;DHT22;10854;45.922;6.716;2022-08-07T13:15:11;31.90;51.30
21387;DHT22;10854;45.922;6.716;2022-08-07T13:20:42;32.40;50.70
21387;DHT22;10854;45.922;6.716;2022-08-07T13:24:28;32.50;51.10
21387;DHT22;10854;45.922;6.716;2022-08-07T13:33:02;33.40;48.90
21387;DHT22;10854;45.922;6.716;2022-08-07T13:38:10;33.30;49.50
21387;DHT22;10854;45.922;6.716;2022-08-07T13:43:40;33.90;47.70
21387;DHT22;10854;45.922;6.716;2022-08-07T13:46:12;33.80;48.00
21387;DHT22;10854;45.922;6.716;2022-08-07T13:48:47;33.90;48.00
21387;DHT22;10854;45.922;6.716;2022-08-07T13:51:18;34.30;48.30
21387;DHT22;10854;45.922;6.716;2022-08-07T13:53:58;34.80;46.60
21387;DHT22;10854;45.922;6.716;2022-08-07T13:56:29;35.00;45.10
21387;DHT22;10854;45.922;6.716;2022-08-07T13:59:00;34.40;45.00
21387;DHT22;10854;45.922;6.716;2022-08-07T14:01:53;33.90;46.00
21387;DHT22;10854;45.922;6.716;2022-08-07T14:04:24;33.60;46.50
21387;DHT22;10854;45.922;6.716;2022-08-07T14:06:53;33.80;47.10
21387;DHT22;10854;45.922;6.716;2022-08-07T14:09:23;34.20;47.10
21387;DHT22;10854;45.922;6.716;2022-08-07T14:11:58;34.30;45.90
21387;DHT22;10854;45.922;6.716;2022-08-07T14:14:41;34.30;45.80
21387;DHT22;10854;45.922;6.716;2022-08-07T14:17:11;34.70;45.80
21387;DHT22;10854;45.922;6.716;2022-08-07T14:19:52;35.20;45.20
21387;DHT22;10854;45.922;6.716;2022-08-07T14:22:26;35.70;44.40
21387;DHT22;10854;45.922;6.716;2022-08-07T14:25:23;36.20;43.00
21387;DHT22;10854;45.922;6.716;2022-08-07T14:27:55;36.20;40.90
21387;DHT22;10854;45.922;6.716;2022-08-07T14:30:24;36.00;42.20
21387;DHT22;10854;45.922;6.716;2022-08-07T14:32:56;35.90;42.90
21387;DHT22;10854;45.922;6.716;2022-08-07T14:35:28;35.30;42.50
21387;DHT22;10854;45.922;6.716;2022-08-07T14:37:57;34.50;43.20
21387;DHT22;10854;45.922;6.716;2022-08-07T14:40:27;33.60;45.30
21387;DHT22;10854;45.922;6.716;2022-08-07T14:43:09;33.00;46.30
21387;DHT22;10854;45.922;6.716;2022-08-07T14:45:49;32.80;46.00
21387;DHT22;10854;45.922;6.716;2022-08-07T14:48:29;32.50;46.20
21387;DHT22;10854;45.922;6.716;2022-08-07T14:51:00;32.00;46.50
21387;DHT22;10854;45.922;6.716;2022-08-07T14:53:35;31.60;47.50
21387;DHT22;10854;45.922;6.716;2022-08-07T14:56:07;31.40;47.90
21387;DHT22;10854;45.922;6.716;2022-08-07T14:58:42;31.50;48.10
21387;DHT22;10854;45.922;6.716;2022-08-07T15:01:13;31.70;48.30
21387;DHT22;10854;45.922;6.716;2022-08-07T15:03:44;32.20;48.20
21387;DHT22;10854;45.922;6.716;2022-08-07T15:06:14;32.40;47.70
21387;DHT22;10854;45.922;6.716;2022-08-07T15:08:48;32.40;46.40
21387;DHT22;10854;45.922;6.716;2022-08-07T15:11:24;32.30;46.20
21387;DHT22;10854;45.922;6.716;2022-08-07T15:13:55;32.30;46.50
21387;DHT22;10854;45.922;6.716;2022-08-07T15:16:27;32.60;46.60
21387;DHT22;10854;45.922;6.716;2022-08-07T15:19:04;33.20;46.50
21387;DHT22;10854;45.922;6.716;2022-08-07T15:21:35;33.90;45.90
21387;DHT22;10854;45.922;6.716;2022-08-07T15:24:08;34.20;45.30
21387;DHT22;10854;45.922;6.716;2022-08-07T15:26:46;34.50;44.90
21387;DHT22;10854;45.922;6.716;2022-08-07T15:29:18;34.70;44.20
21387;DHT22;10854;45.922;6.716;2022-08-07T15:31:50;34.90;43.50
21387;DHT22;10854;45.922;6.716;2022-08-07T15:34:19;34.90;43.20
21387;DHT22;10854;45.922;6.716;2022-08-07T15:36:49;34.60;42.70
21387;DHT22;10854;45.922;6.716;2022-08-07T15:39:18;34.40;43.00
21387;DHT22;10854;45.922;6.716;2022-08-07T15:42:01;34.10;43.00
21387;DHT22;10854;45.922;6.716;2022-08-07T15:44:46;33.90;43.00
21387;DHT22;10854;45.922;6.716;2022-08-07T15:47:16;33.70;43.10
21387;DHT22;10854;45.922;6.716;2022-08-07T15:49:48;33.70;43.10
21387;DHT22;10854;45.922;6.716;2022-08-07T15:52:23;34.00;42.80
21387;DHT22;10854;45.922;6.716;2022-08-07T15:54:53;34.20;41.90
21387;DHT22;10854;45.922;6.716;2022-08-07T15:57:26;34.10;41.80
21387;DHT22;10854;45.922;6.716;2022-08-07T16:00:00;34.30;41.80
21387;DHT22;10854;45.922;6.716;2022-08-07T16:02:41;34.50;41.80
21387;DHT22;10854;45.922;6.716;2022-08-07T16:05:18;34.80;41.40
21387;DHT22;10854;45.922;6.716;2022-08-07T16:07:53;35.10;40.80
21387;DHT22;10854;45.922;6.716;2022-08-07T16:10:27;35.50;40.70
21387;DHT22;10854;45.922;6.716;2022-08-07T16:21:17;36.30;38.80
21387;DHT22;10854;45.922;6.716;2022-08-07T16:24:17;36.20;38.70
21387;DHT22;10854;45.922;6.716;2022-08-07T16:27:28;36.10;38.70
21387;DHT22;10854;45.922;6.716;2022-08-07T16:30:08;35.90;38.40
21387;DHT22;10854;45.922;6.716;2022-08-07T16:32:47;35.70;38.80
21387;DHT22;10854;45.922;6.716;2022-08-07T16:41:14;35.40;38.60
21387;DHT22;10854;45.922;6.716;2022-08-07T16:50:09;34.50;40.00
21387;DHT22;10854;45.922;6.716;2022-08-07T16:53:12;34.20;40.40
21387;DHT22;10854;45.922;6.716;2022-08-07T16:56:05;34.00;41.10
21387;DHT22;10854;45.922;6.716;2022-08-07T16:58:52;33.80;41.30
21387;DHT22;10854;45.922;6.716;2022-08-07T17:04:39;33.30;41.70
21387;DHT22;10854;45.922;6.716;2022-08-07T17:07:30;33.10;41.30
21387;DHT22;10854;45.922;6.716;2022-08-07T17:10:12;32.80;41.40
21387;DHT22;10854;45.922;6.716;2022-08-07T17:16:03;32.50;42.10
21387;DHT22;10854;45.922;6.716;2022-08-07T17:18:36;32.40;42.80
21387;DHT22;10854;45.922;6.716;2022-08-07T17:21:21;32.30;42.60
21387;DHT22;10854;45.922;6.716;2022-08-07T17:27:06;32.10;42.70
21387;DHT22;10854;45.922;6.716;2022-08-07T17:30:07;31.90;42.40
21387;DHT22;10854;45.922;6.716;2022-08-07T17:33:06;31.60;42.70
21387;DHT22;10854;45.922;6.716;2022-08-07T17:35:59;31.30;43.60
21387;DHT22;10854;45.922;6.716;2022-08-07T17:41:56;30.70;45.90
21387;DHT22;10854;45.922;6.716;2022-08-07T17:44:42;30.30;47.30
21387;DHT22;10854;45.922;6.716;2022-08-07T17:47:23;30.10;48.20
21387;DHT22;10854;45.922;6.716;2022-08-07T17:50:00;29.90;49.00
21387;DHT22;10854;45.922;6.716;2022-08-07T17:52:48;29.60;50.30
21387;DHT22;10854;45.922;6.716;2022-08-07T17:55:28;29.20;51.20
21387;DHT22;10854;45.922;6.716;2022-08-07T17:58:06;28.70;52.10
21387;DHT22;10854;45.922;6.716;2022-08-07T18:00:36;28.30;53.10
21387;DHT22;10854;45.922;6.716;2022-08-07T18:03:17;28.00;53.60
21387;DHT22;10854;45.922;6.716;2022-08-07T18:06:05;27.80;54.20
21387;DHT22;10854;45.922;6.716;2022-08-07T18:08:47;27.50;54.90
21387;DHT22;10854;45.922;6.716;2022-08-07T18:11:43;27.20;55.60
21387;DHT22;10854;45.922;6.716;2022-08-07T18:17:27;27.00;56.10
21387;DHT22;10854;45.922;6.716;2022-08-07T18:20:13;26.90;56.40
21387;DHT22;10854;45.922;6.716;2022-08-07T18:22:53;26.70;57.00
21387;DHT22;10854;45.922;6.716;2022-08-07T18:25:24;26.50;57.40
21387;DHT22;10854;45.922;6.716;2022-08-07T18:36:33;26.10;58.20
21387;DHT22;10854;45.922;6.716;2022-08-07T18:39:37;26.00;58.50
21387;DHT22;10854;45.922;6.716;2022-08-07T18:45:12;25.90;58.90
21387;DHT22;10854;45.922;6.716;2022-08-07T18:48:08;25.70;59.00
21387;DHT22;10854;45.922;6.716;2022-08-07T18:56:48;25.40;59.80
21387;DHT22;10854;45.922;6.716;2022-08-07T18:59:51;25.30;59.90
21387;DHT22;10854;45.922;6.716;2022-08-07T19:03:04;25.20;60.00
21387;DHT22;10854;45.922;6.716;2022-08-07T19:05:27;25.20;60.10
21387;DHT22;10854;45.922;6.716;2022-08-07T19:08:32;25.10;60.20
21387;DHT22;10854;45.922;6.716;2022-08-07T19:16:39;24.80;61.90
21387;DHT22;10854;45.922;6.716;2022-08-07T19:19:36;24.60;62.80
21387;DHT22;10854;45.922;6.716;2022-08-07T19:24:42;24.30;63.30
21387;DHT22;10854;45.922;6.716;2022-08-07T19:27:18;24.20;63.80
21387;DHT22;10854;45.922;6.716;2022-08-07T19:29:57;24.10;64.10
21387;DHT22;10854;45.922;6.716;2022-08-07T19:32:30;23.90;64.50
21387;DHT22;10854;45.922;6.716;2022-08-07T19:35:21;23.80;64.80
21387;DHT22;10854;45.922;6.716;2022-08-07T19:37:57;23.70;65.70
21387;DHT22;10854;45.922;6.716;2022-08-07T19:40:37;23.60;65.90
21387;DHT22;10854;45.922;6.716;2022-08-07T19:43:19;23.50;66.30